Aviation Digital Data Service (ADDS)

Output produced by METARs form (1934 UTC 16 January 2018)
found at http://www.aviationweather.gov/adds/metars/
 
Forecast for: VTST (TRANG , TH)
Text: TAF VTST 161700Z 1618/1718 VRB02KT 9000 FEW020
Forecast period: 1800 UTC 16 January 2018 to 0200 UTC 17 January 2018
Forecast type: FROM: standard forecast or significant change
Winds: variable direction winds at 2 MPH (2 knots; 1.0 m/s)
Visibility: 6 miles (9 km)
Clouds: few clouds at 2000 feet AGL
Weather: no significant weather forecast for this period
Text: BECMG 1702/1704 06006KT 9999
Forecast period: 0200 to 1800 UTC 17 January 2018
Forecast type: BECOMING: Conditions expected to become as follows by 0400 UTC 17 January 2018
Winds: from the ENE (60 degrees) at 7 MPH (6 knots; 3.1 m/s)
Visibility: 6 or more miles (10+ km)
Clouds: few clouds at 2000 feet AGL
Weather: no significant weather forecast for this period
Text: TEMPO 1706/1710 VRB10G20KT 5000 TSRA FEW018CB SCT020 BKN100
Forecast period: 0600 to 1000 UTC 17 January 2018
Forecast type: TEMPORARY: The following changes expected for less than half the time period
Winds: variable direction winds at 12 MPH (10 knots; 5.2 m/s)
gusting to 23 MPH (20 knots; 10.4 m/s)
Visibility: 3 miles (5 km)
Ceiling: 10000 feet AGL
Clouds: few clouds at 1800 feet AGL
scattered clouds at 2000 feet AGL
broken clouds at 10000 feet AGL
Weather: TSRA  (rain associated with thunderstorm(s))